Time;durP1;ratioP1;P1;durP2;ratioP2;P2;SDS_P1;SDS_P2;PMS_P1;PMS_P2;Temp;Humidity;BMP_temperature;BMP_pressure;BME280_temperature;BME280_humidity;BME280_pressure;Samples;Min_cycle;Max_cycle;Signal;HPM_P1;HPM_P2
2022/10/07 00:00:39;;;;;;;26.83;4.88;;;12.10;99.90;;;;;;5096553;28;20067;-73
2022/10/07 00:03:05;;;;;;;22.33;5.07;;;12.30;99.90;;;;;;5096524;28;20027;-73
2022/10/07 00:05:31;;;;;;;29.08;6.00;;;12.30;99.90;;;;;;5096214;28;20400;-73
2022/10/07 00:07:56;;;;;;;23.90;5.72;;;12.30;99.90;;;;;;5096362;28;20020;-73
2022/10/07 00:10:22;;;;;;;23.90;5.80;;;12.10;99.90;;;;;;5096570;28;20040;-73
2022/10/07 00:12:48;;;;;;;22.27;5.47;;;12.10;99.90;;;;;;5096108;28;20019;-74
2022/10/07 00:15:14;;;;;;;21.45;5.45;;;12.20;99.90;;;;;;5096465;28;20081;-73
2022/10/07 00:17:40;;;;;;;24.05;5.68;;;12.10;99.90;;;;;;5096067;28;20015;-73
2022/10/07 00:20:06;;;;;;;29.00;6.10;;;12.00;99.90;;;;;;5096039;28;20078;-74
2022/10/07 00:22:32;;;;;;;31.77;7.43;;;12.10;99.90;;;;;;5096086;28;20025;-73
2022/10/07 00:24:57;;;;;;;21.75;6.15;;;12.00;99.90;;;;;;5092515;28;20031;-73
2022/10/07 00:27:23;;;;;;;19.98;5.82;;;12.10;99.90;;;;;;5085119;28;20029;-73
2022/10/07 00:29:51;;;;;;;27.88;5.80;;;12.00;99.90;;;;;;5077524;28;20488;-73
2022/10/07 00:32:17;;;;;;;25.80;6.40;;;11.90;99.90;;;;;;5077898;28;20077;-73
2022/10/07 00:34:43;;;;;;;20.00;4.95;;;12.00;99.90;;;;;;5077722;28;20024;-73
2022/10/07 00:37:12;;;;;;;20.65;5.40;;;12.10;99.90;;;;;;5067697;28;20035;-73
2022/10/07 00:39:38;;;;;;;26.77;5.40;;;12.00;99.90;;;;;;5095926;28;20028;-73
2022/10/07 00:42:04;;;;;;;20.77;4.85;;;12.20;99.90;;;;;;5095793;28;20039;-73
2022/10/07 00:44:40;;;;;;;29.23;5.50;;;12.10;99.90;;;;;;5077602;28;20431;-73
2022/10/07 00:47:12;;;;;;;20.73;4.28;;;12.20;99.90;;;;;;5095156;28;20055;-73
2022/10/07 00:50:06;;;;;;;21.65;4.47;;;12.20;99.90;;;;;;5077524;28;20032;-74
2022/10/07 00:52:56;;;;;;;24.85;4.82;;;12.00;99.90;;;;;;5077489;28;20035;-73
2022/10/07 00:55:24;;;;;;;29.40;5.60;;;11.80;99.90;;;;;;5095403;28;20476;-73
2022/10/07 00:57:54;;;;;;;21.48;5.10;;;11.80;99.90;;;;;;5077446;28;20024;-73
2022/10/07 01:00:22;;;;;;;18.58;4.68;;;11.80;99.90;;;;;;5076651;28;20066;-73
2022/10/07 01:02:49;;;;;;;18.30;4.78;;;11.80;99.90;;;;;;5063962;28;20008;-73
2022/10/07 01:05:15;;;;;;;24.00;5.93;;;11.90;99.90;;;;;;5076745;28;20032;-74
2022/10/07 01:07:45;;;;;;;25.08;4.20;;;11.80;99.90;;;;;;5077084;28;20024;-73
2022/10/07 01:10:12;;;;;;;17.52;4.30;;;11.90;99.90;;;;;;5077063;28;20114;-73
2022/10/07 01:12:56;;;;;;;23.83;4.57;;;11.80;99.90;;;;;;5095180;28;20032;-73
2022/10/07 01:15:38;;;;;;;14.30;4.65;;;11.70;99.90;;;;;;5069530;28;20043;-67
2022/10/07 01:18:21;;;;;;;26.05;4.07;;;11.80;99.90;;;;;;5050344;28;20028;-72
2022/10/07 01:21:09;;;;;;;31.42;5.20;;;11.50;99.90;;;;;;5095007;28;20380;-73
2022/10/07 01:23:56;;;;;;;25.13;4.65;;;11.50;99.90;;;;;;5076639;28;20031;-72
2022/10/07 01:26:39;;;;;;;23.63;4.22;;;11.40;99.90;;;;;;5062650;28;20038;-73
2022/10/07 01:29:12;;;;;;;25.13;4.30;;;11.40;99.90;;;;;;5076797;28;20063;-72
2022/10/07 01:31:44;;;;;;;22.17;4.35;;;11.30;99.90;;;;;;5094392;28;20044;-69
2022/10/07 01:34:13;;;;;;;26.98;4.30;;;11.20;99.90;;;;;;5094932;28;20063;-70
2022/10/07 01:36:45;;;;;;;28.00;4.55;;;11.10;99.90;;;;;;5094793;28;20024;-70
2022/10/07 01:39:15;;;;;;;20.75;4.65;;;11.10;99.90;;;;;;5094911;28;20024;-71
2022/10/07 01:41:40;;;;;;;28.25;5.18;;;11.20;99.90;;;;;;5076547;28;20020;-74
2022/10/07 01:44:09;;;;;;;32.58;4.75;;;11.30;99.90;;;;;;5094639;28;20024;-74
2022/10/07 01:46:36;;;;;;;19.75;4.15;;;11.00;99.90;;;;;;5094450;28;20234;-75
2022/10/07 01:49:06;;;;;;;18.88;4.15;;;11.00;99.90;;;;;;5076336;28;20468;-75
2022/10/07 01:51:36;;;;;;;21.38;5.55;;;11.10;99.90;;;;;;5076503;28;20043;-74
2022/10/07 01:54:19;;;;;;;29.70;5.25;;;11.00;99.90;;;;;;5075936;28;20142;-74
2022/10/07 01:57:23;;;;;;;20.80;4.10;;;11.00;99.90;;;;;;5076274;28;20038;-74
2022/10/07 02:00:10;;;;;;;20.30;4.20;;;11.00;99.90;;;;;;5075012;28;20385;-74
2022/10/07 02:02:46;;;;;;;25.35;3.92;;;11.00;99.90;;;;;;5076151;28;20020;-74
2022/10/07 02:05:34;;;;;;;24.10;4.55;;;10.90;99.90;;;;;;5076144;28;20031;-73
2022/10/07 02:08:03;;;;;;;18.23;3.90;;;10.80;99.90;;;;;;5060489;28;20517;-75
2022/10/07 02:10:35;;;;;;;26.75;4.35;;;10.90;99.90;;;;;;5069932;28;20028;-74
2022/10/07 02:13:07;;;;;;;;;;;10.90;99.90;;;;;;5094533;28;20044;-73
2022/10/07 02:16:20;;;;;;;21.90;4.88;;;11.10;99.90;;;;;;5093661;28;19908;-74
2022/10/07 02:18:51;;;;;;;24.50;4.32;;;10.80;99.90;;;;;;4957789;28;20034;-74
2022/10/07 02:21:21;;;;;;;18.67;3.92;;;10.80;99.90;;;;;;5047910;28;20385;-74
2022/10/07 02:23:48;;;;;;;20.10;4.57;;;10.90;99.90;;;;;;5073328;28;20028;-75
2022/10/07 02:26:18;;;;;;;22.75;5.03;;;10.90;99.90;;;;;;5073366;28;20066;-73
2022/10/07 02:28:46;;;;;;;27.63;3.85;;;10.80;99.90;;;;;;5041945;28;20029;-74
2022/10/07 02:31:16;;;;;;;22.77;5.05;;;10.90;99.90;;;;;;5055340;28;20028;-74
2022/10/07 02:33:46;;;;;;;26.30;4.93;;;11.10;99.90;;;;;;5073444;28;20028;-74
2022/10/07 02:36:23;;;;;;;23.23;4.70;;;11.00;99.90;;;;;;5055243;28;20031;-74
2022/10/07 02:38:49;;;;;;;20.58;4.18;;;11.00;99.90;;;;;;5055468;28;20028;-69
2022/10/07 02:41:34;;;;;;;22.58;5.00;;;10.80;99.90;;;;;;5073178;28;20060;-75
2022/10/07 02:44:17;;;;;;;24.42;4.05;;;10.90;99.90;;;;;;5054936;28;20032;-74
2022/10/07 02:47:06;;;;;;;29.30;5.57;;;11.00;99.90;;;;;;5042667;28;20446;-74
2022/10/07 02:49:38;;;;;;;26.10;4.57;;;10.90;99.90;;;;;;5055213;28;20039;-74
2022/10/07 02:52:13;;;;;;;29.33;4.30;;;11.00;99.90;;;;;;5055062;28;20033;-74
2022/10/07 02:54:51;;;;;;;28.58;5.25;;;10.90;99.90;;;;;;5054768;28;20044;-75
2022/10/07 02:57:20;;;;;;;21.85;4.47;;;10.90;99.90;;;;;;5055128;28;20059;-74
2022/10/07 02:59:49;;;;;;;21.98;4.13;;;11.10;99.90;;;;;;5054908;28;20480;-74
2022/10/07 03:02:23;;;;;;;21.90;3.88;;;11.00;99.90;;;;;;5055244;28;20380;-74
2022/10/07 03:04:49;;;;;;;26.77;5.18;;;10.80;99.90;;;;;;5054998;28;20055;-74
2022/10/07 03:07:15;;;;;;;22.13;4.15;;;10.80;99.90;;;;;;5054818;28;20472;-74
2022/10/07 03:09:42;;;;;;;27.33;5.05;;;10.90;99.90;;;;;;5055165;28;20033;-74
2022/10/07 03:12:10;;;;;;;26.30;5.80;;;10.90;99.90;;;;;;5054596;28;20037;-75
2022/10/07 03:14:36;;;;;;;22.95;4.30;;;10.90;99.90;;;;;;5073070;28;20054;-74
2022/10/07 03:17:02;;;;;;;30.08;5.47;;;11.20;99.90;;;;;;5054603;28;20430;-74
2022/10/07 03:19:29;;;;;;;20.83;4.30;;;11.00;99.90;;;;;;5055131;28;20024;-75
2022/10/07 03:21:56;;;;;;;24.40;3.92;;;10.80;99.90;;;;;;5054349;28;20024;-74
2022/10/07 03:24:23;;;;;;;22.58;4.80;;;10.70;99.90;;;;;;5054806;28;20508;-74
2022/10/07 03:26:49;;;;;;;18.15;5.10;;;10.90;99.90;;;;;;5054195;28;20028;-73
2022/10/07 03:29:17;;;;;;;21.38;5.35;;;10.90;99.90;;;;;;5054446;28;20044;-74
2022/10/07 03:31:43;;;;;;;19.77;4.50;;;10.90;99.90;;;;;;5054684;28;20033;-74
2022/10/07 03:34:10;;;;;;;18.75;3.95;;;10.80;99.90;;;;;;5054465;28;20389;-74
2022/10/07 03:36:37;;;;;;;21.08;4.57;;;10.80;99.90;;;;;;5054438;28;20028;-74
2022/10/07 03:39:04;;;;;;;21.45;4.75;;;10.60;99.90;;;;;;5054490;28;20028;-74
2022/10/07 03:41:32;;;;;;;21.10;4.45;;;10.60;99.90;;;;;;5054052;28;20024;-74
2022/10/07 03:43:59;;;;;;;28.98;4.65;;;10.50;99.90;;;;;;5047620;28;20026;-74
2022/10/07 03:46:27;;;;;;;22.85;5.40;;;10.50;99.90;;;;;;5054280;28;20119;-74
2022/10/07 03:48:53;;;;;;;23.27;4.82;;;10.60;99.90;;;;;;5054552;28;20047;-74
2022/10/07 03:51:19;;;;;;;35.78;4.53;;;10.50;99.90;;;;;;5054002;28;20036;-74
2022/10/07 03:53:44;;;;;;;21.02;4.38;;;10.50;99.90;;;;;;5054475;28;20016;-75
2022/10/07 03:56:10;;;;;;;20.85;4.10;;;10.60;99.90;;;;;;5053750;28;20021;-74
2022/10/07 03:58:39;;;;;;;25.52;4.70;;;10.50;99.90;;;;;;5054527;28;20079;-74
2022/10/07 04:01:11;;;;;;;31.40;5.18;;;10.40;99.90;;;;;;5053876;28;20043;-74
2022/10/07 04:03:42;;;;;;;22.38;4.78;;;10.40;99.90;;;;;;5054300;28;20090;-74
2022/10/07 04:06:09;;;;;;;20.33;4.75;;;10.50;99.90;;;;;;5054681;28;20480;-69
2022/10/07 04:08:37;;;;;;;20.00;4.70;;;10.40;99.90;;;;;;5054489;28;20021;-69
2022/10/07 04:11:04;;;;;;;22.50;4.20;;;10.40;99.90;;;;;;5053548;28;20028;-74
2022/10/07 04:13:32;;;;;;;26.65;4.43;;;10.30;99.90;;;;;;5053958;28;20074;-74
2022/10/07 04:16:05;;;;;;;21.30;4.10;;;10.30;99.90;;;;;;5054405;28;20123;-74
2022/10/07 04:18:31;;;;;;;28.70;4.07;;;10.30;99.90;;;;;;5072208;28;20139;-74
2022/10/07 04:20:59;;;;;;;22.52;3.92;;;10.40;99.90;;;;;;5072296;28;20063;-74
2022/10/07 04:23:25;;;;;;;23.50;4.43;;;10.50;99.90;;;;;;5054118;28;20489;-75
2022/10/07 04:25:52;;;;;;;23.30;4.45;;;10.60;99.90;;;;;;5053616;28;20056;-72
2022/10/07 04:28:22;;;;;;;26.73;5.38;;;10.50;99.90;;;;;;5037648;28;20115;-74
2022/10/07 04:30:52;;;;;;;23.63;4.70;;;10.40;99.90;;;;;;5054006;28;20063;-74
2022/10/07 04:33:24;;;;;;;31.52;5.18;;;10.50;99.90;;;;;;5054023;28;20396;-74
2022/10/07 04:35:52;;;;;;;19.83;4.20;;;10.40;99.90;;;;;;5054254;28;20389;-73
2022/10/07 04:38:18;;;;;;;18.73;4.03;;;10.40;99.90;;;;;;5053997;28;20017;-74
2022/10/07 04:40:48;;;;;;;24.25;5.00;;;10.40;99.90;;;;;;5073800;28;20091;-74
2022/10/07 04:43:19;;;;;;;18.83;4.40;;;10.50;99.90;;;;;;5057791;28;20017;-74
2022/10/07 04:45:59;;;;;;;24.88;4.50;;;10.50;99.90;;;;;;5057562;28;20029;-74
2022/10/07 04:48:26;;;;;;;20.05;4.18;;;10.60;99.90;;;;;;5057531;28;20058;-74
2022/10/07 04:50:52;;;;;;;24.48;6.22;;;10.70;99.90;;;;;;5075254;28;20060;-73
2022/10/07 04:53:20;;;;;;;22.02;4.15;;;10.70;99.90;;;;;;5040779;28;20111;-73
2022/10/07 04:55:50;;;;;;;24.58;4.55;;;10.60;99.90;;;;;;5057235;28;20054;-74
2022/10/07 04:58:18;;;;;;;21.50;4.75;;;10.60;99.90;;;;;;5057520;28;20381;-74
2022/10/07 05:00:46;;;;;;;34.58;4.82;;;10.40;99.90;;;;;;5056842;28;20066;-74
2022/10/07 05:03:13;;;;;;;36.05;5.25;;;10.50;99.90;;;;;;5057197;28;20456;-74
2022/10/07 05:05:41;;;;;;;23.45;4.35;;;10.40;99.90;;;;;;5057097;28;20119;-74
2022/10/07 05:08:08;;;;;;;18.45;4.75;;;10.30;99.90;;;;;;5056834;28;20066;-74
2022/10/07 05:10:38;;;;;;;25.90;5.03;;;10.30;99.90;;;;;;5075095;28;20089;-75
2022/10/07 05:13:06;;;;;;;29.80;4.78;;;10.30;99.90;;;;;;5056684;28;20043;-74
2022/10/07 05:15:32;;;;;;;30.77;5.60;;;10.40;99.90;;;;;;5057192;28;20039;-74
2022/10/07 05:17:58;;;;;;;26.52;5.55;;;10.60;99.90;;;;;;5056695;28;20029;-72
2022/10/07 05:20:26;;;;;;;27.90;4.82;;;10.60;99.90;;;;;;5057018;28;20469;-74
2022/10/07 05:22:53;;;;;;;31.48;5.00;;;10.70;99.90;;;;;;5056431;28;20020;-74
2022/10/07 05:25:19;;;;;;;21.05;4.10;;;10.70;99.90;;;;;;5056505;28;20381;-74
2022/10/07 05:27:51;;;;;;;28.08;4.68;;;10.50;99.90;;;;;;5056784;28;20478;-74
2022/10/07 05:30:18;;;;;;;24.58;5.15;;;10.50;99.90;;;;;;5056803;28;20362;-74
2022/10/07 05:32:44;;;;;;;26.92;4.65;;;10.50;99.90;;;;;;5056889;28;20028;-74
2022/10/07 05:35:10;;;;;;;32.88;4.43;;;10.40;99.90;;;;;;5056401;28;20032;-74
2022/10/07 05:37:36;;;;;;;21.42;4.53;;;10.40;99.90;;;;;;5056358;28;20043;-74
2022/10/07 05:40:03;;;;;;;24.85;5.32;;;10.30;99.90;;;;;;5056493;28;20043;-74
2022/10/07 05:42:29;;;;;;;18.92;4.22;;;10.20;99.90;;;;;;5056490;28;20028;-74
2022/10/07 05:44:56;;;;;;;17.75;4.40;;;10.30;99.90;;;;;;5056448;28;20025;-74
2022/10/07 05:47:22;;;;;;;24.50;4.53;;;10.30;99.90;;;;;;5056210;28;20039;-74
2022/10/07 05:49:49;;;;;;;23.95;4.50;;;10.20;99.90;;;;;;5055793;28;20032;-74
2022/10/07 05:52:14;;;;;;;18.35;3.85;;;10.30;99.90;;;;;;5038862;28;20141;-75
2022/10/07 05:54:42;;;;;;;27.63;4.80;;;10.30;99.90;;;;;;5055849;28;20021;-74
2022/10/07 05:57:11;;;;;;;27.30;5.07;;;10.30;99.90;;;;;;5056240;28;20090;-74
2022/10/07 05:59:36;;;;;;;20.17;5.10;;;10.40;99.90;;;;;;5068560;28;20107;-73
2022/10/07 06:02:03;;;;;;;18.48;3.97;;;10.60;99.90;;;;;;5050986;28;20442;-75
2022/10/07 06:04:31;;;;;;;20.90;4.07;;;10.30;99.90;;;;;;5054659;28;20028;-74
2022/10/07 06:06:57;;;;;;;23.20;4.72;;;10.40;99.90;;;;;;5072657;28;20047;-74
2022/10/07 06:15:01;;;;;;;24.33;5.18;;;10.30;99.90;;;;;;5053585;28;20115;-74
2022/10/07 06:17:28;;;;;;;25.00;5.20;;;10.50;99.90;;;;;;5054976;28;20035;-75
2022/10/07 06:19:57;;;;;;;34.85;7.00;;;10.30;99.90;;;;;;5053360;28;20016;-73
2022/10/07 06:22:22;;;;;;;25.45;5.53;;;10.40;99.90;;;;;;5053823;28;20032;-74
2022/10/07 06:24:50;;;;;;;20.42;4.30;;;10.50;99.90;;;;;;5054378;28;20017;-75
2022/10/07 06:27:17;;;;;;;21.73;5.35;;;10.50;99.90;;;;;;5061294;28;20029;-74
2022/10/07 06:29:43;;;;;;;33.33;3.85;;;10.70;99.90;;;;;;5045656;28;20473;-74
2022/10/07 06:32:10;;;;;;;28.70;4.07;;;10.70;99.90;;;;;;5054647;28;20101;-75
2022/10/07 06:34:36;;;;;;;25.48;4.05;;;10.70;99.90;;;;;;5044125;28;20016;-74
2022/10/07 06:37:02;;;;;;;22.80;4.47;;;10.70;99.90;;;;;;5054259;28;20026;-71
2022/10/07 06:39:28;;;;;;;19.55;3.75;;;10.80;99.90;;;;;;5051707;28;20753;-74
2022/10/07 06:41:56;;;;;;;25.65;4.03;;;10.80;99.90;;;;;;5053994;28;20028;-74
2022/10/07 06:44:37;;;;;;;17.52;3.80;;;10.70;99.90;;;;;;5072444;28;20024;-74
2022/10/07 06:47:04;;;;;;;21.70;4.95;;;10.90;99.90;;;;;;5054631;28;20062;-74
2022/10/07 06:49:30;;;;;;;20.83;3.85;;;11.00;99.90;;;;;;5072312;28;20044;-73
2022/10/07 06:51:56;;;;;;;18.13;4.95;;;10.90;99.90;;;;;;5064414;28;20443;-74
2022/10/07 06:54:23;;;;;;;21.85;4.60;;;10.90;99.90;;;;;;5041379;28;20043;-72
2022/10/07 06:56:49;;;;;;;21.45;4.18;;;10.80;99.90;;;;;;5053823;28;20087;-71
2022/10/07 06:59:15;;;;;;;22.65;4.40;;;10.70;99.90;;;;;;5051503;28;20021;-68
2022/10/07 07:01:49;;;;;;;25.40;4.97;;;10.90;99.90;;;;;;5056261;28;20021;-72
2022/10/07 07:04:15;;;;;;;34.42;5.13;;;10.90;99.90;;;;;;5051750;28;20039;-70
2022/10/07 07:06:41;;;;;;;22.65;4.85;;;10.80;99.90;;;;;;5050757;28;20150;-69
2022/10/07 07:09:08;;;;;;;19.48;4.85;;;10.90;99.90;;;;;;5062225;28;20473;-74
2022/10/07 07:11:37;;;;;;;30.38;5.13;;;11.00;99.90;;;;;;5051975;28;20382;-73
2022/10/07 07:14:11;;;;;;;29.98;5.10;;;11.00;99.90;;;;;;5050921;28;20112;-74
2022/10/07 07:16:40;;;;;;;24.50;4.88;;;11.00;99.90;;;;;;5054384;28;20039;-74
2022/10/07 07:19:10;;;;;;;18.10;4.05;;;11.20;99.90;;;;;;5051001;28;20020;-70
2022/10/07 07:21:39;;;;;;;19.48;4.47;;;11.50;99.90;;;;;;5050633;28;20070;-76
2022/10/07 07:24:08;;;;;;;31.95;4.78;;;11.70;99.90;;;;;;5053998;28;20021;-74
2022/10/07 07:26:36;;;;;;;20.85;4.45;;;11.60;99.90;;;;;;5053407;28;20040;-72
2022/10/07 07:29:04;;;;;;;16.15;3.78;;;11.90;99.90;;;;;;5053990;28;20028;-74
2022/10/07 07:31:36;;;;;;;27.80;4.95;;;12.00;99.90;;;;;;5053431;28;20123;-74
2022/10/07 07:34:10;;;;;;;20.02;4.00;;;11.90;99.90;;;;;;5053584;28;20016;-74
2022/10/07 07:36:37;;;;;;;19.55;3.58;;;11.90;99.90;;;;;;5045555;28;20424;-74
2022/10/07 07:39:07;;;;;;;20.38;4.45;;;11.80;99.90;;;;;;5053878;28;20028;-74
2022/10/07 07:41:36;;;;;;;23.45;4.68;;;11.90;99.90;;;;;;5053613;28;20028;-73
2022/10/07 07:44:07;;;;;;;16.98;3.55;;;11.80;99.90;;;;;;5053743;28;20027;-74
2022/10/07 07:46:36;;;;;;;15.95;4.13;;;11.90;99.90;;;;;;5044011;28;20048;-74
2022/10/07 07:49:02;;;;;;;23.90;5.00;;;11.80;99.90;;;;;;5052415;28;20052;-74
2022/10/07 07:51:28;;;;;;;31.67;5.97;;;12.00;99.90;;;;;;5036143;28;20119;-74
2022/10/07 07:53:55;;;;;;;25.10;5.07;;;12.10;99.90;;;;;;5054355;28;20033;-74
2022/10/07 07:56:21;;;;;;;22.70;5.35;;;12.20;99.90;;;;;;5053152;28;20028;-74
2022/10/07 07:58:47;;;;;;;27.88;4.28;;;12.40;99.90;;;;;;5053395;28;20029;-74
2022/10/07 08:01:16;;;;;;;19.55;4.65;;;12.50;99.90;;;;;;5066896;28;20029;-70
2022/10/07 08:03:45;;;;;;;29.08;5.10;;;12.50;99.90;;;;;;5050421;28;20028;-73
2022/10/07 08:06:14;;;;;;;27.65;4.60;;;12.60;99.90;;;;;;5044049;28;20029;-70
2022/10/07 08:08:42;;;;;;;39.17;5.38;;;12.90;99.90;;;;;;5049001;28;20487;-73
2022/10/07 08:11:08;;;;;;;21.20;5.97;;;12.90;99.90;;;;;;5043404;28;20056;-68
2022/10/07 08:13:35;;;;;;;18.75;4.60;;;13.10;99.90;;;;;;5048587;28;20449;-72
2022/10/07 08:16:03;;;;;;;24.42;4.00;;;13.10;99.90;;;;;;5046364;28;20031;-70
2022/10/07 08:18:30;;;;;;;24.98;4.88;;;13.10;99.90;;;;;;5056868;28;20068;-69
2022/10/07 08:21:02;;;;;;;24.20;5.20;;;13.10;99.90;;;;;;5057554;28;20031;-69
2022/10/07 08:23:30;;;;;;;23.67;6.18;;;13.40;99.90;;;;;;5056872;28;20024;-68
2022/10/07 08:25:57;;;;;;;21.00;4.57;;;13.50;99.90;;;;;;5057198;28;20029;-73
2022/10/07 08:28:26;;;;;;;25.80;5.18;;;13.60;99.90;;;;;;5067115;28;20036;-73
2022/10/07 08:30:59;;;;;;;26.48;4.65;;;13.70;99.90;;;;;;5056705;28;20506;-73
2022/10/07 08:33:25;;;;;;;32.78;6.25;;;13.70;99.90;;;;;;5074369;28;20106;-69
2022/10/07 08:35:57;;;;;;;19.88;4.82;;;14.10;99.90;;;;;;5074498;28;20457;-73
2022/10/07 08:38:24;;;;;;;18.98;3.92;;;14.00;99.90;;;;;;5074773;28;20388;-68
2022/10/07 08:40:52;;;;;;;23.75;4.60;;;14.20;99.90;;;;;;5075312;28;20652;-68
2022/10/07 08:43:22;;;;;;;29.17;5.65;;;14.30;99.90;;;;;;5074701;28;20488;-68
2022/10/07 08:45:51;;;;;;;22.20;4.38;;;14.60;99.90;;;;;;5074447;28;20489;-68
2022/10/07 08:48:26;;;;;;;19.65;3.72;;;14.70;99.90;;;;;;5074492;28;20032;-68
2022/10/07 08:51:18;;;;;;;23.90;3.70;;;14.60;99.90;;;;;;5074602;28;20189;-68
2022/10/07 08:53:49;;;;;;;17.40;3.97;;;14.60;99.90;;;;;;5073261;28;20029;-68
2022/10/07 08:56:22;;;;;;;17.60;3.33;;;14.50;99.90;;;;;;5072936;28;20024;-68
2022/10/07 08:59:08;;;;;;;24.15;4.28;;;14.70;99.90;;;;;;5073972;28;20523;-68
2022/10/07 09:01:53;;;;;;;22.55;3.92;;;14.90;99.90;;;;;;5066047;28;20047;-68
2022/10/07 09:04:25;;;;;;;19.85;4.35;;;15.00;99.90;;;;;;5073734;28;20480;-69
2022/10/07 09:06:59;;;;;;;18.23;3.28;;;14.80;99.90;;;;;;5074497;28;20447;-69
2022/10/07 09:09:34;;;;;;;19.60;3.63;;;15.00;99.90;;;;;;5073746;28;20032;-68
2022/10/07 09:12:04;;;;;;;20.23;4.10;;;15.10;99.90;;;;;;5073471;28;20059;-68
2022/10/07 09:14:29;;;;;;;20.08;4.15;;;15.00;99.90;;;;;;5073399;28;20465;-68
2022/10/07 09:17:05;;;;;;;19.05;4.60;;;15.40;99.90;;;;;;5074412;28;20036;-68
2022/10/07 09:19:48;;;;;;;17.85;3.58;;;15.40;99.90;;;;;;5055881;28;20085;-68
2022/10/07 09:22:28;;;;;;;17.00;3.20;;;15.60;99.90;;;;;;5071847;28;20071;-68
2022/10/07 09:25:05;;;;;;;16.23;3.35;;;15.90;99.90;;;;;;5073550;28;20024;-69
2022/10/07 09:27:32;;;;;;;17.75;3.75;;;16.00;99.90;;;;;;5073262;28;20493;-68
2022/10/07 09:29:58;;;;;;;18.02;3.15;;;15.80;99.90;;;;;;5050452;28;20040;-68
2022/10/07 09:32:23;;;;;;;20.55;3.50;;;15.70;99.90;;;;;;5072347;28;20032;-68
2022/10/07 09:34:51;;;;;;;15.77;3.00;;;15.70;99.90;;;;;;5073736;28;20047;-68
2022/10/07 09:37:25;;;;;;;15.07;3.30;;;15.80;99.90;;;;;;5073746;28;20032;-68
2022/10/07 09:39:56;;;;;;;19.00;3.72;;;16.20;99.90;;;;;;5068379;28;20055;-71
2022/10/07 09:42:36;;;;;;;21.98;3.97;;;15.90;99.90;;;;;;5068228;28;20424;-69
2022/10/07 09:45:17;;;;;;;15.20;3.38;;;16.00;99.90;;;;;;5063206;28;20056;-68
2022/10/07 09:47:43;;;;;;;23.20;3.85;;;16.40;99.90;;;;;;5073491;28;20020;-68
2022/10/07 09:50:38;;;;;;;19.13;3.70;;;16.50;99.90;;;;;;5073468;28;20025;-68
2022/10/07 09:53:27;;;;;;;31.90;3.92;;;16.90;99.90;;;;;;5070566;28;20037;-69
2022/10/07 09:55:54;;;;;;;20.08;4.25;;;17.10;99.90;;;;;;5073093;28;20032;-68
2022/10/07 09:58:28;;;;;;;12.30;3.08;;;16.70;99.90;;;;;;5054861;28;20013;-68
2022/10/07 10:00:59;;;;;;;12.60;3.08;;;16.50;99.90;;;;;;5073297;28;20029;-68
2022/10/07 10:03:36;;;;;;;18.73;3.22;;;16.70;99.90;;;;;;5072864;28;20546;-69
2022/10/07 10:06:05;;;;;;;16.20;3.83;;;17.10;99.90;;;;;;5072805;28;20029;-68
2022/10/07 10:08:40;;;;;;;13.82;3.35;;;16.80;99.90;;;;;;5071452;28;20056;-68
2022/10/07 10:11:24;;;;;;;16.20;3.45;;;16.80;99.90;;;;;;5073918;28;20433;-68
2022/10/07 10:13:51;;;;;;;15.88;3.80;;;17.20;99.90;;;;;;5067242;28;20381;-66
2022/10/07 10:16:34;;;;;;;17.48;3.53;;;17.60;99.90;;;;;;5072614;28;20429;-67
2022/10/07 10:19:19;;;;;;;15.48;3.08;;;17.30;99.90;;;;;;5062424;28;20024;-66
2022/10/07 10:21:59;;;;;;;16.52;3.80;;;17.50;99.90;;;;;;5072320;28;20031;-66
2022/10/07 10:27:25;;;;;;;13.77;3.00;;;17.30;99.90;;;;;;5070724;28;20029;-68
2022/10/07 10:30:01;;;;;;;15.10;3.30;;;17.10;99.90;;;;;;5068850;28;20119;-66
2022/10/07 10:32:47;;;;;;;12.68;2.53;;;17.20;99.90;;;;;;5072203;28;20032;-66
2022/10/07 10:35:26;;;;;;;22.17;3.85;;;17.40;99.90;;;;;;5072159;28;20032;-66
2022/10/07 10:38:11;;;;;;;18.50;3.70;;;17.50;99.90;;;;;;5066404;28;20052;-66
2022/10/07 10:40:50;;;;;;;11.55;2.33;;;18.00;99.90;;;;;;5067810;28;20416;-66
2022/10/07 10:43:21;;;;;;;18.25;3.20;;;17.90;99.90;;;;;;5072215;28;20045;-68
2022/10/07 10:46:17;;;;;;;13.27;3.08;;;18.40;99.90;;;;;;5072565;28;20075;-66
2022/10/07 10:49:24;;;;;;;12.73;3.10;;;18.50;99.90;;;;;;5064457;28;20038;-66
2022/10/07 10:51:55;;;;;;;18.67;2.40;;;19.10;99.90;;;;;;5065814;28;20036;-66
2022/10/07 10:54:42;;;;;;;18.55;3.17;;;18.70;99.90;;;;;;5051619;28;20436;-67
2022/10/07 10:57:33;;;;;;;10.02;2.83;;;19.10;99.90;;;;;;5071012;28;20131;-66
2022/10/07 11:00:12;;;;;;;16.55;2.92;;;19.50;99.90;;;;;;5061000;28;20024;-66
2022/10/07 11:02:38;;;;;;;15.60;2.90;;;19.60;99.90;;;;;;5071711;28;20086;-66
2022/10/07 11:05:19;;;;;;;11.57;2.60;;;19.70;99.90;;;;;;5072876;28;20028;-67
2022/10/07 11:08:09;;;;;;;9.95;2.83;;;19.20;99.90;;;;;;5072625;28;20413;-67
2022/10/07 11:10:38;;;;;;;15.77;2.88;;;19.60;99.90;;;;;;5070891;28;20043;-68
2022/10/07 11:13:29;;;;;;;12.82;2.40;;;19.60;99.90;;;;;;5072338;28;20048;-66
2022/10/07 11:16:03;;;;;;;14.73;2.97;;;19.80;99.90;;;;;;5059061;28;20040;-67
2022/10/07 11:18:42;;;;;;;16.75;3.13;;;20.10;99.90;;;;;;5071753;28;20476;-67
2022/10/07 11:21:14;;;;;;;15.40;3.05;;;20.10;99.90;;;;;;5072584;28;20036;-67
2022/10/07 11:23:49;;;;;;;15.40;2.80;;;20.50;99.90;;;;;;5060247;28;20028;-67
2022/10/07 11:26:57;;;;;;;20.25;2.90;;;20.30;99.90;;;;;;5071911;28;20039;-67
2022/10/07 11:29:46;;;;;;;15.23;2.72;;;21.00;99.90;;;;;;5015405;28;20112;-67
2022/10/07 11:32:22;;;;;;;14.45;3.58;;;21.00;99.90;;;;;;5072188;28;20039;-67
2022/10/07 11:35:13;;;;;;;9.18;2.78;;;20.60;99.90;;;;;;5072693;28;20477;-68
2022/10/07 11:38:11;;;;;;;10.98;2.42;;;21.20;99.70;;;;;;5072316;28;20063;-67
2022/10/07 11:40:52;;;;;;;13.40;3.10;;;20.20;99.90;;;;;;5072033;28;20102;-67
2022/10/07 11:43:31;;;;;;;17.60;2.97;;;20.90;99.90;;;;;;5072628;28;20511;-68
2022/10/07 11:46:03;;;;;;;12.07;2.47;;;20.70;99.90;;;;;;5037888;28;20037;-67
2022/10/07 11:48:51;;;;;;;16.65;3.25;;;20.90;99.90;;;;;;5054337;28;20071;-66
2022/10/07 11:51:33;;;;;;;12.48;2.47;;;21.50;98.90;;;;;;5076451;28;20083;-67
2022/10/07 11:54:02;;;;;;;15.55;2.75;;;20.60;99.90;;;;;;5058398;28;20540;-68
2022/10/07 11:56:44;;;;;;;15.93;2.22;;;21.40;99.10;;;;;;5076232;28;20009;-67
2022/10/07 11:59:42;;;;;;;13.05;2.67;;;21.70;98.80;;;;;;5076336;28;20036;-67
2022/10/07 12:02:26;;;;;;;15.65;4.22;;;21.80;98.20;;;;;;5076242;28;20039;-66
2022/10/07 12:04:53;;;;;;;10.82;2.38;;;21.00;99.60;;;;;;5076146;28;20036;-67
2022/10/07 12:07:31;;;;;;;14.00;2.90;;;20.60;99.80;;;;;;5076346;28;20405;-66
2022/10/07 12:10:00;;;;;;;12.63;3.58;;;20.90;99.40;;;;;;5075892;28;20063;-67
2022/10/07 12:12:41;;;;;;;11.38;2.40;;;22.00;99.40;;;;;;5074395;28;20127;-68
2022/10/07 12:15:38;;;;;;;13.60;2.25;;;22.90;96.90;;;;;;5075066;28;20033;-67
2022/10/07 12:18:07;;;;;;;15.43;2.92;;;22.90;96.40;;;;;;5070960;28;20421;-72
2022/10/07 12:20:45;;;;;;;14.48;3.00;;;22.60;96.60;;;;;;5058220;28;20028;-68
2022/10/07 12:23:17;;;;;;;16.50;2.65;;;22.00;97.20;;;;;;5057590;28;20024;-71
2022/10/07 12:25:52;;;;;;;11.30;2.13;;;21.60;97.70;;;;;;5075967;28;20101;-71
2022/10/07 12:28:24;;;;;;;10.90;3.25;;;20.80;99.00;;;;;;5057782;28;20504;-67
2022/10/07 12:30:56;;;;;;;15.05;2.53;;;21.40;98.70;;;;;;5057761;28;20048;-68
2022/10/07 12:33:32;;;;;;;16.88;2.80;;;21.60;97.80;;;;;;5075664;28;20035;-67
2022/10/07 12:36:20;;;;;;;12.77;3.17;;;21.60;98.10;;;;;;5075688;28;20025;-68
2022/10/07 12:39:10;;;;;;;12.35;2.53;;;21.60;98.40;;;;;;5075035;28;20484;-67
2022/10/07 12:41:38;;;;;;;10.95;2.38;;;21.60;97.60;;;;;;5064170;28;20040;-67
2022/10/07 12:44:30;;;;;;;11.48;2.67;;;22.50;97.10;;;;;;5075298;28;20044;-67
2022/10/07 12:47:09;;;;;;;9.75;2.35;;;22.40;96.00;;;;;;5075663;28;20043;-67
2022/10/07 12:49:47;;;;;;;11.20;2.22;;;21.50;98.10;;;;;;5057486;28;20047;-67
2022/10/07 12:52:28;;;;;;;10.88;2.65;;;21.90;96.50;;;;;;5075145;28;20067;-67
2022/10/07 12:55:03;;;;;;;10.75;2.08;;;21.10;97.50;;;;;;5062364;28;20111;-67
2022/10/07 12:57:37;;;;;;;8.45;2.55;;;20.10;99.50;;;;;;5075383;28;20039;-67
2022/10/07 13:00:14;;;;;;;10.75;2.67;;;21.00;99.10;;;;;;5075223;28;20128;-68
2022/10/07 13:02:55;;;;;;;10.43;2.50;;;22.00;97.20;;;;;;5056626;28;20112;-68
2022/10/07 13:06:03;;;;;;;9.82;2.42;;;23.50;94.90;;;;;;5075265;28;20465;-67
2022/10/07 13:08:51;;;;;;;11.15;3.25;;;22.10;96.50;;;;;;5074782;28;20541;-67
2022/10/07 13:11:53;;;;;;;9.60;2.05;;;23.00;96.10;;;;;;5075017;28;20101;-68
2022/10/07 13:14:37;;;;;;;11.15;2.60;;;23.30;95.10;;;;;;5074818;28;20538;-69